world map with HEA marked

HEA - Airport

This information may not be accurate or current and is not valid for navigation or flight planning. No warranty of fitness for any purpose is made or implied.

flag of Afghanistan

Donate via PayPal

Additional information is available on the NEW Great Circle Mapper

Location
City:  Herat, Herat, Afghanistan
Name:Herat International Airport
ICAO / IATA:OAHR / HEA

Details
Type:Airport (Aerodrome, Airfield)
Latitude:34°12'36"N (34.210000)
Longitude:62°13'42"E (62.228333)
Elevation:3206 ft (977 m)
Runways:1
Longest:8200 × 150 ft (2499 × 45.5 m)

Time
Timezone:UTC+4:30 (DST+6:30)
Local Time:

Weather
METAR:OAHR  131855Z 12003KT CAVOK 06/M05 Q1025 RMK A3028 BLU
TAF:OAHR  (expired)

Related Locations
Nearby:
Farthest:IPC: 11743 mi / 18899 km
Easter Island (Isla de Pascua, Rapa Nui) [Mataveri Intl], VS, CL

Find:

   beyond  
but within

Other Information
Maps:
Sources:

  


 


Great Circle Mapper   Great Circle Mapper
Great Circle Mapper FAQ   Great Circle Mapper FAQ
  Karl's Home Page
KLSē   KLSē Home
   GC on Facebook
Airlines of the World   Airlines of the World
Donate via PayPal


Copyright © 2004-2018, Karl L. Swartz. All rights reserved.
All trademarks mentioned herein belong to their respective owners.

Please see credits for attribution and copyright information.

Karl Swartz <karl@kls2.com>
  Powered by FreeBSD
Valid HTML 4.01!
Labeled with ICRA
hCard Microformat
Geo Microformat